createdAt,value
2018-04-13T00:01:03.033Z,13.80
2018-04-13T00:06:01.423Z,13.84
2018-04-13T00:08:33.468Z,13.89
2018-04-13T00:10:59.403Z,13.88
2018-04-13T00:13:25.259Z,13.92
2018-04-13T00:15:57.170Z,13.92
2018-04-13T00:18:23.057Z,14.00
2018-04-13T00:20:55.005Z,14.05
2018-04-13T00:23:20.849Z,13.95
2018-04-13T00:25:52.833Z,14.01
2018-04-13T00:28:24.857Z,13.98
2018-04-13T00:30:50.714Z,13.88
2018-04-13T00:33:16.580Z,13.93
2018-04-13T00:35:42.451Z,13.88
2018-04-13T00:38:08.293Z,13.85
2018-04-13T00:40:46.868Z,13.69
2018-04-13T00:43:18.948Z,13.63
2018-04-13T00:45:44.821Z,13.63
2018-04-13T00:48:10.687Z,13.58
2018-04-13T00:50:36.557Z,13.53
2018-04-13T00:53:14.652Z,13.45
2018-04-13T00:55:46.683Z,13.42
2018-04-13T00:58:12.570Z,13.36
2018-04-13T01:00:38.417Z,13.34
2018-04-13T01:03:04.283Z,13.36
2018-04-13T01:05:30.160Z,13.28
2018-04-13T01:07:56.024Z,13.21
2018-04-13T01:10:21.905Z,13.18
2018-04-13T01:12:47.752Z,13.06
2018-04-13T01:15:13.616Z,13.08
2018-04-13T01:17:39.479Z,13.00
2018-04-13T01:20:11.616Z,12.70
2018-04-13T01:22:43.578Z,12.58
2018-04-13T01:25:15.642Z,12.74
2018-04-13T01:27:41.485Z,12.48
2018-04-13T01:30:13.396Z,12.46
2018-04-13T01:32:45.244Z,12.25
2018-04-13T01:35:11.093Z,12.16
2018-04-13T01:37:36.925Z,12.08
2018-04-13T01:40:02.825Z,12.03
2018-04-13T01:42:41.089Z,12.17
2018-04-13T01:45:07.016Z,11.95
2018-04-13T01:47:32.891Z,11.89
2018-04-13T01:50:04.929Z,11.85
2018-04-13T01:52:36.992Z,11.73
2018-04-13T01:55:09.074Z,11.78
2018-04-13T01:57:34.947Z,11.82
2018-04-13T02:00:00.837Z,11.63
2018-04-13T02:02:26.737Z,11.80
2018-04-13T02:04:52.580Z,11.74
2018-04-13T02:07:30.725Z,11.83
2018-04-13T02:09:56.595Z,11.77
2018-04-13T02:12:22.455Z,11.56
2018-04-13T02:14:48.321Z,11.26
2018-04-13T02:17:20.172Z,11.35
2018-04-13T02:19:46.066Z,11.40
2018-04-13T02:22:11.957Z,11.34
2018-04-13T02:24:50.274Z,11.28
2018-04-13T02:27:16.174Z,11.29
2018-04-13T02:29:48.016Z,11.31
2018-04-13T02:32:20.128Z,11.35
2018-04-13T02:34:46.096Z,10.84
2018-04-13T02:37:11.955Z,10.75
2018-04-13T02:39:37.813Z,10.95
2018-04-13T02:42:15.987Z,10.99
2018-04-13T02:44:41.873Z,11.02
2018-04-13T02:47:07.725Z,10.82
2018-04-13T02:49:45.866Z,10.92
2018-04-13T02:52:17.904Z,10.90
2018-04-13T02:54:43.796Z,10.80
2018-04-13T02:57:09.652Z,10.79
2018-04-13T02:59:41.465Z,10.41
2018-04-13T03:02:19.597Z,10.50
2018-04-13T03:04:51.457Z,10.62
2018-04-13T03:07:23.526Z,10.64
2018-04-13T03:09:49.404Z,10.73
2018-04-13T03:12:21.411Z,10.75
2018-04-13T03:14:53.368Z,10.70
2018-04-13T03:17:19.232Z,10.63
2018-04-13T03:19:45.116Z,10.12
2018-04-13T03:22:11.052Z,10.37
2018-04-13T03:24:36.917Z,10.45
2018-04-13T03:27:02.769Z,10.57
2018-04-13T03:29:34.845Z,10.56
2018-04-13T03:32:13.103Z,10.51
2018-04-13T03:34:45.003Z,10.63
2018-04-13T03:37:10.878Z,10.69
2018-04-13T03:39:36.716Z,10.66
2018-04-13T03:42:02.617Z,10.48
2018-04-13T03:44:39.339Z,10.53
2018-04-13T03:47:05.272Z,10.58
2018-04-13T03:49:31.124Z,10.42
2018-04-13T03:51:57.032Z,10.46
2018-04-13T03:54:22.876Z,10.28
2018-04-13T03:56:48.722Z,10.40
2018-04-13T03:59:14.565Z,10.47
2018-04-13T04:01:40.431Z,10.36
2018-04-13T04:04:12.425Z,10.25
2018-04-13T04:06:44.402Z,10.15
2018-04-13T04:09:16.363Z,10.22
2018-04-13T04:11:42.238Z,10.25
2018-04-13T04:14:08.089Z,10.13
2018-04-13T04:16:33.937Z,10.06
2018-04-13T04:18:59.808Z,10.05
2018-04-13T04:21:37.842Z,10.27
2018-04-13T04:24:15.997Z,10.27
2018-04-13T04:26:46.559Z,10.22
2018-04-13T04:29:18.448Z,10.28
2018-04-13T04:31:44.327Z,10.24
2018-04-13T04:34:10.224Z,10.23
2018-04-13T04:36:36.125Z,10.26
2018-04-13T04:39:08.157Z,10.32
2018-04-13T04:41:34.020Z,10.45
2018-04-13T04:44:06.067Z,10.48
2018-04-13T04:46:31.955Z,10.62
2018-04-13T04:48:57.845Z,10.61
2018-04-13T04:51:23.740Z,10.65
2018-04-13T04:53:55.816Z,10.70
2018-04-13T04:56:27.779Z,10.59
2018-04-13T04:58:53.679Z,10.66
2018-04-13T05:01:25.536Z,10.75
2018-04-13T05:03:51.435Z,10.69
2018-04-13T05:06:17.337Z,10.78
2018-04-13T05:08:43.211Z,10.84
2018-04-13T05:11:09.097Z,10.74
2018-04-13T05:13:34.980Z,10.72
2018-04-13T05:16:00.839Z,10.63
2018-04-13T05:18:32.865Z,10.54
2018-04-13T05:20:58.757Z,10.64
2018-04-13T05:23:24.633Z,10.77
2018-04-13T05:25:50.505Z,11.04
2018-04-13T05:28:16.444Z,11.16
2018-04-13T05:30:42.345Z,11.24
2018-04-13T05:33:08.218Z,11.39
2018-04-13T05:35:40.301Z,11.50
2018-04-13T05:38:06.221Z,11.37
2018-04-13T05:40:38.081Z,11.60
2018-04-13T05:43:03.993Z,11.68
2018-04-13T05:45:35.971Z,11.90
2018-04-13T05:48:14.065Z,11.86
2018-04-13T05:50:45.976Z,11.90
2018-04-13T05:53:11.883Z,12.38
2018-04-13T05:55:43.777Z,12.81
2018-04-13T05:58:15.803Z,12.84
2018-04-13T06:00:41.681Z,13.02
2018-04-13T06:03:07.557Z,13.16
2018-04-13T06:05:39.553Z,13.17
2018-04-13T06:08:05.505Z,13.08
2018-04-13T06:10:31.366Z,12.99
2018-04-13T06:12:57.238Z,12.98
2018-04-13T06:15:23.105Z,13.07
2018-04-13T06:17:48.967Z,13.08
2018-04-13T06:20:21.017Z,13.28
2018-04-13T06:22:46.905Z,13.22
2018-04-13T06:25:12.781Z,13.15
2018-04-13T06:27:44.807Z,13.21
2018-04-13T06:30:10.704Z,13.24
2018-04-13T06:32:48.759Z,13.34
2018-04-13T06:35:14.646Z,13.38
2018-04-13T06:37:40.597Z,13.39
2018-04-13T06:40:12.441Z,13.24
2018-04-13T06:42:38.329Z,13.32
2018-04-13T06:45:04.289Z,13.31
2018-04-13T06:47:36.189Z,13.63
2018-04-13T06:50:02.117Z,13.74
2018-04-13T06:52:40.292Z,13.85
2018-04-13T06:55:06.154Z,14.12
2018-04-13T06:57:32.036Z,14.21
2018-04-13T06:59:57.926Z,14.35
2018-04-13T07:02:23.859Z,14.38
2018-04-13T07:04:49.742Z,14.43
2018-04-13T07:07:15.643Z,14.37
2018-04-13T07:09:41.493Z,14.34
2018-04-13T07:12:07.396Z,14.41
2018-04-13T07:14:39.182Z,14.38
2018-04-13T07:17:11.224Z,14.37
2018-04-13T07:19:43.132Z,14.19
2018-04-13T07:22:14.934Z,14.15
2018-04-13T07:24:40.779Z,14.13
2018-04-13T07:27:12.726Z,14.08
2018-04-13T07:29:44.709Z,14.16
2018-04-13T07:32:10.600Z,14.04
2018-04-13T07:34:48.654Z,14.05
2018-04-13T07:37:14.517Z,14.05
2018-04-13T07:39:40.405Z,13.99
2018-04-13T07:42:06.265Z,13.93
2018-04-13T07:44:32.145Z,13.95
2018-04-13T07:47:04.145Z,13.95
2018-04-13T07:49:30.027Z,13.94
2018-04-13T07:51:55.920Z,13.88
2018-04-13T07:54:27.712Z,13.97
2018-04-13T07:56:53.605Z,14.08
2018-04-13T07:59:19.485Z,14.17
2018-04-13T08:01:45.600Z,14.24
2018-04-13T08:04:11.261Z,14.23
2018-04-13T08:06:37.159Z,14.20
2018-04-13T08:09:03.100Z,14.18
2018-04-13T08:11:35.149Z,14.39
2018-04-13T08:14:07.081Z,14.49
2018-04-13T08:16:32.953Z,14.39
2018-04-13T08:19:04.885Z,14.60
2018-04-13T08:21:36.881Z,14.64
2018-04-13T08:24:02.750Z,14.79
2018-04-13T08:26:28.613Z,14.80
2018-04-13T08:29:00.581Z,14.76
2018-04-13T08:31:38.523Z,14.80
2018-04-13T08:34:04.411Z,14.73
2018-04-13T08:36:30.305Z,14.64
2018-04-13T08:38:56.211Z,14.68
2018-04-13T08:41:22.080Z,14.64
2018-04-13T08:43:54.124Z,14.64
2018-04-13T08:46:20.025Z,14.61
2018-04-13T08:48:46.015Z,14.76
2018-04-13T08:51:17.944Z,14.77
2018-04-13T08:53:49.919Z,14.83
2018-04-13T08:56:15.804Z,15.00
2018-04-13T08:58:41.704Z,15.08
2018-04-13T09:01:07.604Z,15.21
2018-04-13T09:03:33.462Z,15.13
2018-04-13T09:06:05.435Z,15.07
2018-04-13T09:08:31.308Z,15.10
2018-04-13T09:11:03.330Z,15.08
2018-04-13T09:13:29.220Z,15.07
2018-04-13T09:15:55.109Z,15.04
2018-04-13T09:18:20.988Z,15.10
2018-04-13T09:20:46.905Z,15.05
2018-04-13T09:23:12.721Z,14.88
2018-04-13T09:25:38.569Z,14.75
2018-04-13T09:28:10.511Z,14.66
2018-04-13T09:30:36.399Z,14.55
2018-04-13T09:33:02.284Z,14.53
2018-04-13T09:35:28.190Z,14.57
2018-04-13T09:37:54.044Z,14.56
2018-04-13T09:40:19.893Z,14.62
2018-04-13T09:42:45.796Z,14.70
2018-04-13T09:45:11.682Z,14.71
2018-04-13T09:47:43.571Z,14.83
2018-04-13T09:50:09.461Z,15.02
2018-04-13T09:52:35.339Z,15.09
2018-04-13T09:55:07.181Z,15.24
2018-04-13T09:57:33.067Z,14.95
2018-04-13T10:00:11.316Z,14.89
2018-04-13T10:02:37.170Z,15.03
2018-04-13T10:05:03.100Z,15.17
2018-04-13T10:07:28.985Z,15.25
2018-04-13T10:10:00.889Z,15.18
2018-04-13T10:12:32.975Z,15.34
2018-04-13T10:14:58.877Z,15.38
2018-04-13T10:17:30.716Z,15.54
2018-04-13T10:20:02.567Z,15.56
2018-04-13T10:22:34.488Z,15.63
2018-04-13T10:25:00.361Z,15.54
2018-04-13T10:27:32.240Z,15.54
2018-04-13T10:30:11.497Z,15.53
2018-04-13T10:32:37.403Z,15.43
2018-04-13T10:35:03.318Z,15.72
2018-04-13T10:37:29.277Z,16.03
2018-04-13T10:39:55.124Z,16.16
2018-04-13T10:42:26.947Z,16.47
2018-04-13T10:44:58.948Z,16.90
2018-04-13T10:47:24.809Z,17.05
2018-04-13T10:49:50.664Z,16.85
2018-04-13T10:52:22.573Z,16.70
2018-04-13T10:54:48.469Z,17.21
2018-04-13T10:57:14.341Z,17.33
2018-04-13T10:59:40.201Z,17.17
2018-04-13T11:02:06.071Z,17.32
2018-04-13T11:04:44.142Z,17.44
2018-04-13T11:07:10.007Z,17.84
2018-04-13T11:09:35.905Z,18.31
2018-04-13T11:12:07.908Z,17.88
2018-04-13T11:14:33.800Z,18.34
2018-04-13T11:16:59.712Z,18.07
2018-04-13T11:19:31.737Z,18.15
2018-04-13T11:21:57.660Z,18.41
2018-04-13T11:24:23.522Z,18.30
2018-04-13T11:26:49.420Z,17.98
2018-04-13T11:29:15.281Z,18.02
2018-04-13T11:31:47.225Z,17.80
2018-04-13T11:34:25.250Z,17.75
2018-04-13T11:36:51.156Z,18.22
2018-04-13T11:39:17.015Z,18.54
2018-04-13T11:41:48.869Z,18.39
2018-04-13T11:44:14.765Z,18.53
2018-04-13T11:46:52.978Z,18.58
2018-04-13T11:49:18.850Z,18.69
2018-04-13T11:51:44.768Z,18.88
2018-04-13T11:54:10.629Z,19.01
2018-04-13T11:56:36.485Z,19.33
2018-04-13T11:59:02.382Z,19.25
2018-04-13T12:01:28.273Z,19.67
2018-04-13T12:03:54.123Z,19.20
2018-04-13T12:06:20.788Z,19.32
2018-04-13T12:08:46.662Z,19.49
2018-04-13T12:11:12.569Z,19.89
2018-04-13T12:13:38.445Z,19.95
2018-04-13T12:16:04.348Z,19.00
2018-04-13T12:18:30.241Z,18.95
2018-04-13T12:20:56.146Z,18.71
2018-04-13T12:23:22.041Z,18.77
2018-04-13T12:25:47.983Z,19.80
2018-04-13T12:28:13.901Z,19.71
2018-04-13T12:30:39.774Z,19.67
2018-04-13T12:33:05.701Z,20.11
2018-04-13T12:35:31.600Z,18.89
2018-04-13T12:37:57.485Z,18.48
2018-04-13T12:40:23.396Z,18.72
2018-04-13T12:42:49.282Z,18.56
2018-04-13T12:45:15.195Z,19.53
2018-04-13T12:47:41.058Z,19.76
2018-04-13T12:50:06.956Z,20.46
2018-04-13T12:52:32.830Z,20.50
2018-04-13T12:54:58.918Z,20.83
2018-04-13T12:57:24.648Z,19.51
2018-04-13T12:59:50.498Z,19.61
2018-04-13T13:02:16.349Z,20.11
2018-04-13T13:04:42.268Z,20.14
2018-04-13T13:07:08.215Z,19.70
2018-04-13T13:09:34.090Z,19.34
2018-04-13T13:12:00.037Z,19.45
2018-04-13T13:14:25.990Z,20.25
2018-04-13T13:16:51.862Z,20.61
2018-04-13T13:19:17.781Z,19.88
2018-04-13T13:21:43.740Z,19.55
2018-04-13T13:24:09.637Z,19.15
2018-04-13T13:26:35.522Z,18.95
2018-04-13T13:29:01.367Z,18.90
2018-04-13T13:31:27.281Z,18.71
2018-04-13T13:33:53.175Z,18.46
2018-04-13T13:36:19.096Z,18.40
2018-04-13T13:38:44.989Z,18.13
2018-04-13T13:41:10.866Z,17.95
2018-04-13T13:43:36.814Z,19.37
2018-04-13T13:46:02.710Z,19.87
2018-04-13T13:48:28.578Z,19.41
2018-04-13T13:50:54.440Z,19.66
2018-04-13T13:53:20.401Z,19.40
2018-04-13T13:55:46.296Z,18.59
2018-04-13T13:58:12.196Z,17.94
2018-04-13T14:00:38.076Z,17.88
2018-04-13T14:03:04.004Z,17.78
2018-04-13T14:05:29.853Z,17.63
2018-04-13T14:07:55.780Z,17.64
2018-04-13T14:10:21.685Z,17.42
2018-04-13T14:12:47.545Z,17.36
2018-04-13T14:15:13.440Z,16.94
2018-04-13T14:17:39.339Z,16.38
2018-04-13T14:20:05.250Z,16.09
2018-04-13T14:22:31.151Z,15.64
2018-04-13T14:24:57.052Z,15.24
2018-04-13T14:27:23.033Z,14.89
2018-04-13T14:29:48.926Z,14.75
2018-04-13T14:32:14.818Z,14.69
2018-04-13T14:34:40.704Z,14.67
2018-04-13T14:37:06.626Z,15.00
2018-04-13T14:39:32.511Z,15.18
2018-04-13T14:41:58.432Z,15.23
2018-04-13T14:44:24.296Z,15.53
2018-04-13T14:46:50.206Z,14.95
2018-04-13T14:49:16.058Z,15.10
2018-04-13T14:51:41.963Z,15.08
2018-04-13T14:54:07.828Z,14.65
2018-04-13T14:56:33.788Z,14.67
2018-04-13T14:58:59.709Z,14.62
2018-04-13T15:01:25.600Z,14.28
2018-04-13T15:03:51.486Z,13.85
2018-04-13T15:06:17.417Z,13.66
2018-04-13T15:08:43.277Z,13.46
2018-04-13T15:11:09.143Z,13.55
2018-04-13T15:13:35.051Z,13.40
2018-04-13T15:16:00.963Z,13.28
2018-04-13T15:18:26.911Z,13.11
2018-04-13T15:20:52.878Z,13.10
2018-04-13T15:23:18.813Z,13.03
2018-04-13T15:25:44.666Z,12.93
2018-04-13T15:28:10.556Z,12.89
2018-04-13T15:30:36.427Z,12.70
2018-04-13T15:33:02.353Z,12.67
2018-04-13T15:35:28.264Z,12.52
2018-04-13T15:37:54.118Z,12.38
2018-04-13T15:40:20.059Z,12.31
2018-04-13T15:42:45.916Z,12.18
2018-04-13T15:45:12.767Z,12.14
2018-04-13T15:47:38.658Z,12.18
2018-04-13T15:50:04.546Z,12.31
2018-04-13T15:52:30.445Z,12.39
2018-04-13T15:54:56.320Z,12.33
2018-04-13T15:57:22.220Z,12.22
2018-04-13T15:59:48.113Z,12.35
2018-04-13T16:02:13.982Z,12.41
2018-04-13T16:04:39.891Z,12.42
2018-04-13T16:07:05.764Z,12.28
2018-04-13T16:09:31.801Z,12.33
2018-04-13T16:11:57.713Z,12.23
2018-04-13T16:14:23.589Z,12.23
2018-04-13T16:16:49.494Z,12.36
2018-04-13T16:19:15.369Z,12.06
2018-04-13T16:21:41.264Z,12.11
2018-04-13T16:24:07.141Z,11.95
2018-04-13T16:26:32.998Z,11.93
2018-04-13T16:28:58.933Z,11.75
2018-04-13T16:31:25.961Z,11.56
2018-04-13T16:33:51.850Z,11.57
2018-04-13T16:36:17.737Z,11.43
2018-04-13T16:38:43.645Z,11.45
2018-04-13T16:41:09.593Z,11.36
2018-04-13T16:43:35.584Z,11.19
2018-04-13T16:46:01.500Z,11.12
2018-04-13T16:48:27.393Z,11.13
2018-04-13T16:50:53.306Z,11.24
2018-04-13T16:53:19.183Z,11.31
2018-04-13T16:55:45.075Z,11.23
2018-04-13T16:58:10.947Z,11.16
2018-04-13T17:00:36.906Z,11.09
2018-04-13T17:03:03.603Z,10.85
2018-04-13T17:05:29.469Z,10.83
2018-04-13T17:07:56.076Z,10.92
2018-04-13T17:10:21.966Z,10.70
2018-04-13T17:12:47.838Z,10.71
2018-04-13T17:15:23.297Z,10.67
2018-04-13T17:18:01.166Z,10.62
2018-04-13T17:20:28.188Z,10.63
2018-04-13T17:22:54.143Z,10.64
2018-04-13T17:25:20.052Z,10.61
2018-04-13T17:27:45.973Z,10.46
2018-04-13T17:30:11.886Z,10.42
2018-04-13T17:32:37.785Z,10.46
2018-04-13T17:35:03.695Z,10.50
2018-04-13T17:37:29.621Z,10.54
2018-04-13T17:39:55.501Z,10.57
2018-04-13T17:42:22.355Z,10.56
2018-04-13T17:44:48.259Z,10.59
2018-04-13T17:47:14.161Z,10.53
2018-04-13T17:49:40.092Z,10.54
2018-04-13T17:52:06.032Z,10.40
2018-04-13T17:54:31.932Z,10.49
2018-04-13T17:56:57.907Z,10.52
2018-04-13T17:59:23.829Z,10.58
2018-04-13T18:01:49.750Z,10.63
2018-04-13T18:04:15.638Z,10.57
2018-04-13T18:06:41.565Z,10.43
2018-04-13T18:09:07.454Z,10.46
2018-04-13T18:11:33.357Z,10.43
2018-04-13T18:13:59.263Z,10.41
2018-04-13T18:16:26.666Z,10.31
2018-04-13T18:18:52.673Z,10.31
2018-04-13T18:21:18.896Z,10.30
2018-04-13T18:23:44.799Z,10.23
2018-04-13T18:26:10.685Z,10.31
2018-04-13T18:28:36.632Z,10.22
2018-04-13T18:31:02.533Z,10.28
2018-04-13T18:33:28.440Z,10.24
2018-04-13T18:35:54.328Z,10.22
2018-04-13T18:38:20.241Z,10.18
2018-04-13T18:40:46.109Z,10.22
2018-04-13T18:43:12.000Z,10.24
2018-04-13T18:45:37.890Z,10.13
2018-04-13T18:48:03.777Z,10.17
2018-04-13T18:50:29.689Z,10.16
2018-04-13T18:52:55.549Z,10.19
2018-04-13T18:55:21.465Z,10.23
2018-04-13T18:57:47.306Z,10.34
2018-04-13T19:00:13.184Z,10.39
2018-04-13T19:02:39.101Z,10.36
2018-04-13T19:05:05.021Z,10.40
2018-04-13T19:07:30.980Z,10.43
2018-04-13T19:09:56.845Z,10.51
2018-04-13T19:12:22.770Z,10.50
2018-04-13T19:14:48.647Z,10.47
2018-04-13T19:17:14.644Z,10.40
2018-04-13T19:19:40.562Z,10.37
2018-04-13T19:22:10.591Z,10.37
2018-04-13T19:24:38.886Z,10.31
2018-04-13T19:27:07.446Z,10.32
2018-04-13T19:29:35.628Z,10.30
2018-04-13T19:32:03.110Z,10.32
2018-04-13T19:34:29.097Z,10.34
2018-04-13T19:36:56.015Z,10.34
2018-04-13T19:39:24.032Z,10.32
2018-04-13T19:41:49.921Z,10.40
2018-04-13T19:44:15.852Z,10.41
2018-04-13T19:46:41.757Z,10.40
2018-04-13T19:49:07.729Z,10.31
2018-04-13T19:51:33.621Z,10.32
2018-04-13T19:53:59.534Z,10.31
2018-04-13T19:56:25.430Z,10.33
2018-04-13T19:58:51.380Z,10.31
2018-04-13T20:01:17.314Z,10.28
2018-04-13T20:03:43.262Z,10.20
2018-04-13T20:06:09.194Z,10.17
2018-04-13T20:08:35.105Z,10.06
2018-04-13T20:11:00.983Z,10.06
2018-04-13T20:13:26.868Z,10.12
2018-04-13T20:15:52.819Z,10.13
2018-04-13T20:18:18.832Z,10.07
2018-04-13T20:20:44.748Z,10.10
2018-04-13T20:23:10.697Z,10.04
2018-04-13T20:25:36.590Z,10.06
2018-04-13T20:28:02.540Z,10.06
2018-04-13T20:30:28.452Z,9.98
2018-04-13T20:32:54.339Z,9.93
2018-04-13T20:35:20.220Z,9.82
2018-04-13T20:37:46.145Z,9.88
2018-04-13T20:40:13.429Z,9.88
2018-04-13T20:42:41.286Z,9.95
2018-04-13T20:45:07.316Z,9.93
2018-04-13T20:47:33.239Z,9.99
2018-04-13T20:49:59.101Z,10.03
2018-04-13T20:52:24.988Z,10.02
2018-04-13T20:54:50.930Z,9.98
2018-04-13T20:57:16.850Z,10.03
2018-04-13T20:59:42.725Z,10.11
2018-04-13T21:02:08.621Z,10.08
2018-04-13T21:04:34.501Z,10.05
2018-04-13T21:07:00.377Z,10.08
2018-04-13T21:09:26.297Z,10.03
2018-04-13T21:11:52.206Z,10.01
2018-04-13T21:14:18.101Z,10.07
2018-04-13T21:16:43.984Z,10.08
2018-04-13T21:19:09.923Z,10.07
2018-04-13T21:21:35.785Z,10.01
2018-04-13T21:24:01.764Z,9.99
2018-04-13T21:26:27.677Z,9.94
2018-04-13T21:28:53.564Z,9.95
2018-04-13T21:31:19.421Z,9.95
2018-04-13T21:33:45.297Z,9.95
2018-04-13T21:36:11.189Z,10.00
2018-04-13T21:41:02.805Z,9.83
2018-04-13T21:43:28.665Z,9.78
2018-04-13T21:45:54.552Z,9.75
2018-04-13T21:48:20.445Z,9.71
2018-04-13T21:50:46.337Z,9.77
2018-04-13T21:53:12.186Z,9.69
2018-04-13T21:55:38.071Z,9.71
2018-04-13T21:58:03.937Z,9.77
2018-04-13T22:00:29.909Z,9.68
2018-04-13T22:02:55.761Z,9.69
2018-04-13T22:05:21.622Z,9.67
2018-04-13T22:07:47.534Z,9.71
2018-04-13T22:10:13.417Z,9.78
2018-04-13T22:12:51.374Z,9.73
2018-04-13T22:15:25.277Z,9.68
2018-04-13T22:17:51.199Z,9.71
2018-04-13T22:20:17.055Z,9.73
2018-04-13T22:22:42.920Z,9.72
2018-04-13T22:25:08.801Z,9.71
2018-04-13T22:27:34.711Z,9.74
2018-04-13T22:30:00.580Z,9.79
2018-04-13T22:32:26.429Z,9.82
2018-04-13T22:34:52.298Z,9.89
2018-04-13T22:37:18.201Z,9.90
2018-04-13T22:39:44.038Z,9.92
2018-04-13T22:42:09.932Z,9.88
2018-04-13T22:47:01.544Z,10.01
2018-04-13T22:49:27.404Z,10.02
2018-04-13T22:51:53.284Z,9.97
2018-04-13T22:54:19.171Z,9.91
2018-04-13T22:56:45.043Z,10.06
2018-04-13T22:59:10.903Z,10.10
2018-04-13T23:01:36.796Z,10.15
2018-04-13T23:04:02.698Z,10.12
2018-04-13T23:06:28.560Z,10.08
2018-04-13T23:08:54.433Z,9.96
2018-04-13T23:11:20.300Z,9.88
2018-04-13T23:13:46.199Z,9.93
2018-04-13T23:16:12.084Z,9.91
2018-04-13T23:18:37.962Z,9.90
2018-04-13T23:21:03.814Z,9.90
2018-04-13T23:23:29.669Z,9.94
2018-04-13T23:25:55.554Z,9.91
2018-04-13T23:28:21.418Z,9.95
2018-04-13T23:30:47.315Z,10.05
2018-04-13T23:33:13.157Z,9.99
2018-04-13T23:35:39.033Z,9.89
2018-04-13T23:38:04.893Z,9.96
2018-04-13T23:40:30.791Z,10.04
2018-04-13T23:42:56.672Z,10.07
2018-04-13T23:45:22.529Z,9.99
2018-04-13T23:47:48.384Z,10.01
2018-04-13T23:50:14.250Z,10.12
2018-04-13T23:52:40.168Z,10.20
2018-04-13T23:55:06.052Z,10.21
2018-04-13T23:57:31.985Z,10.15
2018-04-13T23:59:57.876Z,10.01
